Řízení letového provozu České republiky
Letiste: LKNA Aktualizace: 17.02.2019 00:00:06  UTC
 METAR LKNA 17.02. 00:00 ...
METAR LKNA 170000Z 11003KT CAVOK 04/M01 Q1027 RMK BLU=
 TAF LKNA 16.02. 23:00 ...
TAF LKNA 162300Z 1700/1800 VRB02KT CAVOK      TEMPO 1702/1708 1500 BR NSC      TEMPO 1718/1800 4000 BR BKN006=